createdAt,value
2024-02-13T00:00:13.218Z,0.00
2024-02-13T00:01:12.565Z,0.00
2024-02-13T00:02:12.572Z,0.00
2024-02-13T00:03:12.569Z,0.00
2024-02-13T00:04:12.506Z,0.00
2024-02-13T00:05:12.564Z,0.00
2024-02-13T00:06:12.486Z,0.00
2024-02-13T00:07:12.506Z,0.00
2024-02-13T00:08:12.744Z,0.00
2024-02-13T00:09:12.485Z,0.00
2024-02-13T00:10:12.554Z,0.00
2024-02-13T00:11:12.446Z,0.00
2024-02-13T00:12:12.453Z,0.00
2024-02-13T00:13:12.458Z,0.00
2024-02-13T00:14:12.449Z,0.00
2024-02-13T00:15:12.385Z,0.00
2024-02-13T00:16:12.374Z,0.00
2024-02-13T00:17:12.391Z,0.00
2024-02-13T00:18:12.430Z,0.00
2024-02-13T00:19:12.378Z,0.00
2024-02-13T00:20:12.365Z,0.00
2024-02-13T00:21:12.316Z,0.00
2024-02-13T00:22:12.304Z,0.00
2024-02-13T00:23:12.406Z,0.00
2024-02-13T00:24:12.304Z,0.00
2024-02-13T00:25:12.284Z,0.00
2024-02-13T00:26:12.355Z,0.00
2024-02-13T00:27:12.263Z,0.00
2024-02-13T00:28:12.295Z,0.00
2024-02-13T00:29:12.290Z,0.00
2024-02-13T00:30:12.233Z,0.00
2024-02-13T00:31:12.214Z,0.00
2024-02-13T00:32:12.218Z,0.00
2024-02-13T00:33:12.319Z,0.00
2024-02-13T00:34:12.228Z,0.00
2024-02-13T00:35:12.240Z,0.00
2024-02-13T00:36:12.161Z,0.00
2024-02-13T00:37:12.184Z,0.00
2024-02-13T00:38:12.165Z,0.00
2024-02-13T00:39:12.186Z,0.00
2024-02-13T00:40:12.169Z,0.00
2024-02-13T00:41:12.139Z,0.00
2024-02-13T00:42:12.103Z,0.00
2024-02-13T00:43:12.099Z,0.00
2024-02-13T00:44:12.136Z,0.00
2024-02-13T00:45:12.516Z,0.00
2024-02-13T00:46:12.068Z,0.00
2024-02-13T00:47:12.077Z,0.00
2024-02-13T00:48:12.082Z,0.00
2024-02-13T00:49:12.074Z,0.00
2024-02-13T00:50:12.108Z,0.00
2024-02-13T00:51:12.041Z,0.00
2024-02-13T00:52:11.983Z,0.00
2024-02-13T00:53:12.005Z,0.00
2024-02-13T00:54:12.048Z,0.00
2024-02-13T00:55:11.993Z,0.00
2024-02-13T00:56:11.994Z,0.00
2024-02-13T00:57:11.931Z,0.00
2024-02-13T00:58:11.926Z,0.00
2024-02-13T00:59:12.146Z,0.00
2024-02-13T01:00:12.601Z,0.00
2024-02-13T01:01:11.932Z,0.00
2024-02-13T01:02:11.942Z,0.00
2024-02-13T01:03:11.874Z,0.00
2024-02-13T01:04:11.934Z,0.00
2024-02-13T01:05:11.955Z,0.00
2024-02-13T01:06:11.875Z,0.00
2024-02-13T01:07:11.827Z,0.00
2024-02-13T01:08:11.932Z,0.00
2024-02-13T01:09:11.829Z,0.00
2024-02-13T01:10:11.796Z,0.00
2024-02-13T01:11:11.830Z,0.00
2024-02-13T01:12:11.787Z,0.00
2024-02-13T01:13:11.864Z,0.00
2024-02-13T01:14:11.817Z,0.00
2024-02-13T01:15:11.772Z,0.00
2024-02-13T01:16:11.734Z,0.00
2024-02-13T01:17:11.758Z,0.00
2024-02-13T01:18:11.838Z,0.00
2024-02-13T01:19:11.742Z,0.00
2024-02-13T01:20:11.701Z,0.00
2024-02-13T01:21:11.710Z,0.00
2024-02-13T01:22:11.688Z,0.00
2024-02-13T01:23:11.698Z,0.00
2024-02-13T01:24:11.664Z,0.00
2024-02-13T01:25:11.659Z,0.00
2024-02-13T01:26:11.671Z,0.00
2024-02-13T01:27:11.654Z,0.00
2024-02-13T01:28:11.610Z,0.00
2024-02-13T01:29:11.627Z,0.00
2024-02-13T01:30:11.569Z,0.00
2024-02-13T01:31:11.592Z,0.00
2024-02-13T01:32:11.602Z,0.00
2024-02-13T01:33:11.706Z,0.00
2024-02-13T01:34:11.720Z,0.00
2024-02-13T01:35:11.696Z,0.00
2024-02-13T01:36:11.535Z,0.00
2024-02-13T01:37:11.574Z,0.00
2024-02-13T01:38:11.533Z,0.00
2024-02-13T01:39:11.487Z,0.00
2024-02-13T01:40:11.476Z,0.00
2024-02-13T01:41:11.533Z,0.00
2024-02-13T01:42:11.506Z,0.00
2024-02-13T01:43:11.461Z,0.00
2024-02-13T01:44:11.466Z,0.00
2024-02-13T01:45:11.423Z,0.00
2024-02-13T01:46:11.441Z,0.00
2024-02-13T01:47:11.416Z,0.00
2024-02-13T01:48:11.671Z,0.00
2024-02-13T01:49:11.596Z,0.00
2024-02-13T01:50:11.440Z,0.00
2024-02-13T01:51:11.358Z,0.00
2024-02-13T01:52:11.336Z,0.00
2024-02-13T01:53:11.438Z,0.00
2024-02-13T01:54:11.387Z,0.00
2024-02-13T01:55:11.312Z,0.00
2024-02-13T01:56:11.321Z,0.00
2024-02-13T01:57:11.296Z,0.00
2024-02-13T01:58:11.289Z,0.00
2024-02-13T01:59:11.363Z,0.00
2024-02-13T02:00:11.253Z,0.00
2024-02-13T02:01:11.271Z,0.00
2024-02-13T02:02:11.270Z,0.00
2024-02-13T02:03:11.237Z,0.00
2024-02-13T02:04:11.273Z,0.00
2024-02-13T02:05:11.213Z,0.00
2024-02-13T02:06:11.365Z,0.00
2024-02-13T02:07:11.184Z,0.00
2024-02-13T02:08:11.189Z,0.00
2024-02-13T02:09:11.186Z,0.00
2024-02-13T02:10:11.151Z,0.00
2024-02-13T02:11:11.191Z,0.00
2024-02-13T02:12:11.122Z,0.00
2024-02-13T02:13:11.127Z,0.00
2024-02-13T02:14:11.219Z,0.00
2024-02-13T02:15:11.130Z,0.00
2024-02-13T02:16:11.080Z,0.00
2024-02-13T02:17:11.282Z,0.00
2024-02-13T02:18:11.216Z,0.00
2024-02-13T02:19:11.233Z,0.00
2024-02-13T02:20:11.108Z,0.00
2024-02-13T02:21:11.065Z,0.00
2024-02-13T02:22:11.011Z,0.00
2024-02-13T02:23:11.047Z,0.00
2024-02-13T02:24:11.020Z,0.00
2024-02-13T02:25:11.014Z,0.00
2024-02-13T02:26:11.046Z,0.00
2024-02-13T02:27:10.981Z,0.00
2024-02-13T02:28:10.953Z,0.00
2024-02-13T02:29:11.004Z,0.00
2024-02-13T02:30:10.962Z,0.00
2024-02-13T02:31:10.954Z,0.00
2024-02-13T02:32:10.998Z,0.00
2024-02-13T02:33:11.214Z,0.00
2024-02-13T02:34:10.941Z,0.00
2024-02-13T02:35:11.000Z,0.00
2024-02-13T02:36:10.889Z,0.00
2024-02-13T02:37:10.857Z,0.00
2024-02-13T02:38:10.920Z,0.00
2024-02-13T02:39:10.830Z,0.00
2024-02-13T02:40:10.825Z,0.00
2024-02-13T02:41:10.940Z,0.00
2024-02-13T02:42:10.831Z,0.00
2024-02-13T02:43:10.835Z,0.00
2024-02-13T02:44:10.832Z,0.00
2024-02-13T02:45:10.798Z,0.00
2024-02-13T02:46:10.833Z,0.00
2024-02-13T02:47:10.813Z,0.00
2024-02-13T02:48:10.917Z,0.00
2024-02-13T02:49:10.752Z,0.00
2024-02-13T02:50:10.771Z,0.00
2024-02-13T02:51:10.735Z,0.00
2024-02-13T02:52:10.692Z,0.00
2024-02-13T02:53:10.743Z,0.00
2024-02-13T02:54:10.670Z,0.00
2024-02-13T02:55:10.679Z,0.00
2024-02-13T02:56:10.717Z,0.00
2024-02-13T02:57:10.639Z,0.00
2024-02-13T02:58:10.627Z,0.00
2024-02-13T02:59:10.671Z,0.00
2024-02-13T03:00:10.615Z,0.00
2024-02-13T03:01:10.649Z,0.00
2024-02-13T03:02:10.627Z,0.00
2024-02-13T03:03:10.804Z,0.00
2024-02-13T03:04:11.807Z,0.00
2024-02-13T03:05:10.637Z,0.00
2024-02-13T03:06:10.641Z,0.00
2024-02-13T03:07:10.564Z,0.00
2024-02-13T03:08:10.575Z,0.00
2024-02-13T03:09:10.506Z,0.00
2024-02-13T03:10:10.506Z,0.00
2024-02-13T03:11:10.539Z,0.00
2024-02-13T03:12:10.499Z,0.00
2024-02-13T03:13:10.500Z,0.00
2024-02-13T03:14:10.508Z,0.00
2024-02-13T03:15:10.465Z,0.00
2024-02-13T03:16:10.434Z,0.00
2024-02-13T03:17:10.468Z,0.00
2024-02-13T03:18:10.523Z,0.00
2024-02-13T03:19:10.499Z,0.00
2024-02-13T03:20:10.407Z,0.00
2024-02-13T03:21:10.375Z,0.00
2024-02-13T03:22:10.390Z,0.00
2024-02-13T03:23:10.395Z,0.00
2024-02-13T03:24:10.343Z,0.00
2024-02-13T03:25:10.384Z,0.00
2024-02-13T03:26:10.373Z,0.00
2024-02-13T03:27:10.314Z,0.00
2024-02-13T03:28:10.337Z,0.00
2024-02-13T03:29:10.346Z,0.00
2024-02-13T03:30:10.325Z,0.00
2024-02-13T03:31:10.270Z,0.00
2024-02-13T03:32:10.270Z,0.00
2024-02-13T03:33:10.466Z,0.00
2024-02-13T03:34:10.382Z,0.00
2024-02-13T03:35:10.285Z,0.00
2024-02-13T03:36:10.263Z,0.00
2024-02-13T03:37:10.212Z,0.00
2024-02-13T03:38:10.241Z,0.00
2024-02-13T03:39:10.182Z,0.00
2024-02-13T03:40:10.176Z,0.00
2024-02-13T03:41:10.211Z,0.00
2024-02-13T03:42:10.157Z,0.00
2024-02-13T03:43:10.165Z,0.00
2024-02-13T03:44:10.157Z,0.00
2024-02-13T03:45:10.115Z,0.00
2024-02-13T03:46:10.116Z,0.00
2024-02-13T03:47:10.115Z,0.00
2024-02-13T03:48:10.230Z,0.00
2024-02-13T03:49:10.176Z,0.00
2024-02-13T03:50:10.226Z,0.00
2024-02-13T03:51:10.152Z,0.00
2024-02-13T03:52:10.046Z,0.00
2024-02-13T03:53:10.090Z,0.00
2024-02-13T03:54:10.105Z,0.00
2024-02-13T03:55:10.006Z,0.00
2024-02-13T03:56:10.014Z,0.00
2024-02-13T03:57:09.990Z,0.00
2024-02-13T03:58:10.010Z,0.00
2024-02-13T03:59:11.439Z,0.00
2024-02-13T04:00:09.968Z,0.00
2024-02-13T04:01:10.231Z,0.00
2024-02-13T04:02:09.947Z,0.00
2024-02-13T04:03:09.923Z,0.00
2024-02-13T04:04:10.035Z,0.00
2024-02-13T04:05:09.959Z,0.00
2024-02-13T04:06:10.048Z,0.00
2024-02-13T04:07:09.943Z,0.00
2024-02-13T04:08:09.958Z,0.00
2024-02-13T04:09:09.889Z,0.00
2024-02-13T04:10:09.879Z,0.00
2024-02-13T04:11:10.144Z,0.00
2024-02-13T04:12:09.831Z,0.00
2024-02-13T04:13:09.830Z,0.00
2024-02-13T04:14:09.864Z,0.00
2024-02-13T04:15:09.817Z,0.00
2024-02-13T04:16:09.786Z,0.00
2024-02-13T04:17:09.852Z,0.00
2024-02-13T04:18:10.056Z,0.00
2024-02-13T04:19:09.992Z,0.00
2024-02-13T04:20:09.876Z,0.00
2024-02-13T04:21:10.381Z,0.00
2024-02-13T04:22:09.819Z,0.00
2024-02-13T04:23:09.777Z,0.00
2024-02-13T04:24:09.692Z,0.00
2024-02-13T04:25:09.718Z,0.00
2024-02-13T04:26:18.215Z,0.00
2024-02-13T04:27:10.760Z,0.00
2024-02-13T04:28:09.662Z,0.00
2024-02-13T04:29:09.916Z,0.00
2024-02-13T04:30:09.703Z,0.00
2024-02-13T04:31:09.621Z,0.00
2024-02-13T04:32:09.661Z,0.00
2024-02-13T04:33:09.882Z,0.00
2024-02-13T04:34:09.677Z,0.00
2024-02-13T04:35:09.868Z,0.00
2024-02-13T04:36:09.571Z,0.00
2024-02-13T04:37:09.556Z,0.00
2024-02-13T04:38:09.662Z,0.00
2024-02-13T04:39:09.572Z,0.00
2024-02-13T04:40:11.694Z,0.00
2024-02-13T04:41:09.548Z,0.00
2024-02-13T04:42:09.549Z,0.00
2024-02-13T04:43:09.503Z,0.00
2024-02-13T04:44:09.495Z,0.00
2024-02-13T04:45:09.470Z,0.00
2024-02-13T04:46:09.472Z,0.00
2024-02-13T04:47:09.481Z,0.00
2024-02-13T04:48:09.622Z,0.00
2024-02-13T04:49:09.496Z,0.00
2024-02-13T04:50:10.866Z,0.00
2024-02-13T04:51:09.458Z,0.00
2024-02-13T04:52:09.407Z,0.00
2024-02-13T04:53:09.437Z,0.00
2024-02-13T04:54:09.423Z,0.00
2024-02-13T04:55:09.393Z,0.00
2024-02-13T04:56:09.372Z,0.00
2024-02-13T04:57:09.348Z,0.00
2024-02-13T04:58:09.369Z,0.00
2024-02-13T04:59:09.453Z,0.00
2024-02-13T05:00:09.341Z,0.00
2024-02-13T05:01:09.346Z,0.00
2024-02-13T05:02:09.316Z,0.00
2024-02-13T05:03:09.284Z,0.00
2024-02-13T05:04:09.300Z,0.00
2024-02-13T05:05:09.312Z,0.00
2024-02-13T05:06:09.322Z,0.00
2024-02-13T05:07:09.235Z,0.00
2024-02-13T05:08:09.299Z,0.00
2024-02-13T05:09:09.225Z,0.00
2024-02-13T05:10:09.229Z,0.00
2024-02-13T05:11:09.211Z,0.00
2024-02-13T05:12:09.197Z,0.00
2024-02-13T05:13:09.185Z,0.00
2024-02-13T05:14:09.166Z,0.00
2024-02-13T05:15:09.180Z,0.00
2024-02-13T05:16:09.156Z,0.00
2024-02-13T05:17:09.126Z,0.00
2024-02-13T05:18:09.244Z,0.00
2024-02-13T05:19:09.189Z,0.00
2024-02-13T05:20:09.133Z,0.00
2024-02-13T05:21:09.089Z,0.00
2024-02-13T05:22:09.072Z,0.00
2024-02-13T05:23:09.060Z,0.00
2024-02-13T05:24:09.049Z,0.00
2024-02-13T05:25:09.064Z,0.00
2024-02-13T05:26:09.028Z,0.00
2024-02-13T05:27:09.077Z,0.00
2024-02-13T05:28:09.014Z,0.00
2024-02-13T05:29:08.990Z,0.00
2024-02-13T05:30:08.984Z,0.00
2024-02-13T05:31:08.997Z,0.00
2024-02-13T05:32:08.969Z,0.00
2024-02-13T05:33:09.095Z,0.00
2024-02-13T05:34:09.029Z,0.00
2024-02-13T05:35:08.935Z,0.00
2024-02-13T05:36:08.944Z,0.00
2024-02-13T05:37:08.912Z,0.00
2024-02-13T05:38:08.896Z,0.00
2024-02-13T05:39:08.887Z,0.00
2024-02-13T05:40:08.883Z,0.00
2024-02-13T05:41:08.915Z,0.00
2024-02-13T05:42:08.857Z,0.00
2024-02-13T05:43:08.882Z,0.00
2024-02-13T05:44:08.839Z,0.00
2024-02-13T05:45:08.829Z,0.00
2024-02-13T05:46:08.854Z,0.00
2024-02-13T05:47:08.813Z,0.00
2024-02-13T05:48:08.936Z,0.00
2024-02-13T05:49:08.841Z,0.00
2024-02-13T05:50:08.983Z,0.00
2024-02-13T05:51:08.810Z,0.00
2024-02-13T05:52:08.756Z,0.00
2024-02-13T05:53:08.748Z,0.00
2024-02-13T05:54:08.772Z,0.00
2024-02-13T05:55:08.719Z,0.00
2024-02-13T05:56:08.704Z,0.00
2024-02-13T05:57:08.786Z,0.00
2024-02-13T05:58:08.695Z,0.00
2024-02-13T05:59:08.704Z,4.00
2024-02-13T06:00:10.792Z,0.00
2024-02-13T06:01:08.869Z,0.00
2024-02-13T06:02:08.674Z,4.00
2024-02-13T06:03:08.728Z,4.00
2024-02-13T06:04:08.655Z,4.00
2024-02-13T06:05:08.621Z,4.00
2024-02-13T06:06:08.665Z,4.00
2024-02-13T06:07:08.690Z,4.00
2024-02-13T06:08:08.626Z,4.00
2024-02-13T06:09:08.624Z,8.00
2024-02-13T06:10:08.643Z,8.00
2024-02-13T06:11:08.641Z,12.00
2024-02-13T06:12:08.647Z,12.00
2024-02-13T06:13:08.616Z,16.00
2024-02-13T06:14:08.582Z,12.00
2024-02-13T06:15:08.539Z,20.00
2024-02-13T06:16:08.526Z,20.00
2024-02-13T06:17:08.564Z,20.00
2024-02-13T06:18:08.638Z,20.00
2024-02-13T06:19:08.559Z,32.00
2024-02-13T06:20:08.504Z,32.00
2024-02-13T06:21:08.452Z,40.00
2024-02-13T06:22:08.439Z,44.00
2024-02-13T06:23:08.511Z,48.00
2024-02-13T06:24:08.526Z,56.00
2024-02-13T06:25:08.429Z,68.00
2024-02-13T06:26:08.420Z,72.00
2024-02-13T06:27:08.446Z,80.00
2024-02-13T06:28:08.393Z,84.00
2024-02-13T06:29:08.409Z,88.00
2024-02-13T06:30:08.438Z,88.00
2024-02-13T06:31:08.438Z,100.00
2024-02-13T06:32:08.331Z,100.00
2024-02-13T06:33:08.676Z,104.00
2024-02-13T06:34:08.476Z,120.00
2024-02-13T06:35:08.313Z,120.00
2024-02-13T06:36:08.346Z,152.00
2024-02-13T06:37:08.315Z,168.00
2024-02-13T06:38:08.314Z,176.00
2024-02-13T06:39:08.276Z,192.00
2024-02-13T06:40:08.273Z,188.00
2024-02-13T06:41:08.232Z,188.00
2024-02-13T06:42:08.398Z,220.00
2024-02-13T06:43:08.273Z,228.00
2024-02-13T06:44:08.224Z,232.00
2024-02-13T06:45:08.195Z,244.00
2024-02-13T06:46:08.328Z,292.00
2024-02-13T06:47:08.245Z,308.00
2024-02-13T06:48:08.440Z,300.00
2024-02-13T06:49:08.295Z,316.00
2024-02-13T06:50:08.133Z,320.00
2024-02-13T06:51:08.220Z,288.00
2024-02-13T06:52:08.151Z,280.00
2024-02-13T06:53:08.105Z,340.00
2024-02-13T06:54:08.181Z,380.00
2024-02-13T06:55:08.071Z,384.00
2024-02-13T06:56:08.057Z,388.00
2024-02-13T06:57:08.045Z,444.00
2024-02-13T06:58:08.041Z,440.00
2024-02-13T06:59:08.057Z,468.00
2024-02-13T07:00:08.148Z,432.00
2024-02-13T07:01:08.030Z,448.00
2024-02-13T07:02:08.000Z,444.00
2024-02-13T07:03:08.175Z,472.00
2024-02-13T07:04:08.057Z,508.00
2024-02-13T07:05:08.103Z,560.00
2024-02-13T07:06:08.028Z,600.00
2024-02-13T07:07:19.064Z,696.00
2024-02-13T07:08:09.017Z,724.00
2024-02-13T07:09:08.213Z,820.00
2024-02-13T07:10:08.041Z,636.00
2024-02-13T07:11:07.967Z,620.00
2024-02-13T07:12:07.976Z,776.00
2024-02-13T07:13:08.038Z,652.00
2024-02-13T07:14:08.000Z,732.00
2024-02-13T07:15:08.309Z,804.00
2024-02-13T07:16:07.841Z,832.00
2024-02-13T07:17:07.853Z,924.00
2024-02-13T07:18:08.000Z,1004.00
2024-02-13T07:19:08.074Z,1168.00
2024-02-13T07:20:07.869Z,1384.00
2024-02-13T07:21:08.454Z,1504.00
2024-02-13T07:22:07.783Z,1628.00
2024-02-13T07:23:07.807Z,1732.00
2024-02-13T07:24:07.986Z,1664.00
2024-02-13T07:25:07.796Z,1584.00
2024-02-13T07:26:07.733Z,1428.00
2024-02-13T07:27:07.730Z,1404.00
2024-02-13T07:28:07.738Z,1484.00
2024-02-13T07:29:07.712Z,1568.00
2024-02-13T07:30:07.815Z,1724.00
2024-02-13T07:31:07.714Z,1788.00
2024-02-13T07:32:10.576Z,1708.00
2024-02-13T07:33:07.824Z,1640.00
2024-02-13T07:34:07.786Z,1604.00
2024-02-13T07:35:07.678Z,1556.00
2024-02-13T07:36:07.678Z,1572.00
2024-02-13T07:37:07.631Z,1644.00
2024-02-13T07:38:07.672Z,1740.00
2024-02-13T07:39:07.886Z,1708.00
2024-02-13T07:40:07.655Z,1652.00
2024-02-13T07:41:07.826Z,1664.00
2024-02-13T07:42:07.756Z,1524.00
2024-02-13T07:43:07.610Z,1420.00
2024-02-13T07:44:07.548Z,1772.00
2024-02-13T07:45:07.542Z,2216.00
2024-02-13T07:46:07.544Z,2252.00
2024-02-13T07:47:07.684Z,2292.00
2024-02-13T07:48:07.638Z,2268.00
2024-02-13T07:49:07.616Z,2300.00
2024-02-13T07:50:07.481Z,2124.00
2024-02-13T07:51:07.494Z,1988.00
2024-02-13T07:52:07.464Z,2164.00
2024-02-13T07:53:08.207Z,2072.00
2024-02-13T07:54:07.479Z,1752.00
2024-02-13T07:55:07.493Z,1636.00
2024-02-13T07:56:07.406Z,1776.00
2024-02-13T07:57:07.406Z,1940.00
2024-02-13T07:58:07.391Z,2152.00
2024-02-13T07:59:07.622Z,2312.00
2024-02-13T08:00:07.366Z,2460.00
2024-02-13T08:01:07.372Z,2264.00
2024-02-13T08:02:07.356Z,2380.00
2024-02-13T08:03:07.358Z,2492.00
2024-02-13T08:04:07.472Z,2560.00
2024-02-13T08:05:07.480Z,2608.00
2024-02-13T08:06:07.399Z,2788.00
2024-02-13T08:07:07.320Z,2720.00
2024-02-13T08:08:08.618Z,2696.00
2024-02-13T08:09:07.324Z,2776.00
2024-02-13T08:10:07.260Z,2792.00
2024-02-13T08:11:07.245Z,2772.00
2024-02-13T08:12:07.583Z,2824.00
2024-02-13T08:13:07.261Z,2928.00
2024-02-13T08:14:07.238Z,3084.00
2024-02-13T08:15:07.305Z,2880.00
2024-02-13T08:16:07.196Z,2720.00
2024-02-13T08:17:07.187Z,2908.00
2024-02-13T08:18:07.237Z,2888.00
2024-02-13T08:19:07.199Z,2820.00
2024-02-13T08:20:07.226Z,2740.00
2024-02-13T08:21:07.199Z,3456.00
2024-02-13T08:22:07.162Z,3496.00
2024-02-13T08:23:07.139Z,3648.00
2024-02-13T08:24:07.110Z,3336.00
2024-02-13T08:25:07.119Z,3060.00
2024-02-13T08:26:07.096Z,2796.00
2024-02-13T08:27:07.395Z,2376.00
2024-02-13T08:28:07.097Z,2516.00
2024-02-13T08:29:07.057Z,2528.00
2024-02-13T08:30:07.120Z,2460.00
2024-02-13T08:31:07.037Z,2384.00
2024-02-13T08:32:07.029Z,2504.00
2024-02-13T08:33:07.209Z,2744.00
2024-02-13T08:34:07.186Z,2820.00
2024-02-13T08:35:07.160Z,2828.00
2024-02-13T08:36:07.058Z,2924.00
2024-02-13T08:37:07.004Z,3440.00
2024-02-13T08:38:06.973Z,3544.00
2024-02-13T08:39:07.010Z,3508.00
2024-02-13T08:40:06.979Z,3572.00
2024-02-13T08:41:06.950Z,3732.00
2024-02-13T08:42:06.988Z,4356.00
2024-02-13T08:43:06.926Z,4632.00
2024-02-13T08:44:06.920Z,4544.00
2024-02-13T08:45:06.911Z,4660.00
2024-02-13T08:46:06.921Z,4492.00
2024-02-13T08:47:06.857Z,4484.00
2024-02-13T08:48:06.978Z,4156.00
2024-02-13T08:49:07.189Z,4260.00
2024-02-13T08:50:07.082Z,4068.00
2024-02-13T08:51:07.035Z,4192.00
2024-02-13T08:52:06.814Z,4036.00
2024-02-13T08:53:06.801Z,3896.00
2024-02-13T08:54:06.884Z,3436.00
2024-02-13T08:55:06.808Z,2976.00
2024-02-13T08:56:06.811Z,2748.00
2024-02-13T08:57:06.761Z,3024.00
2024-02-13T08:58:06.735Z,3664.00
2024-02-13T08:59:06.767Z,4304.00
2024-02-13T09:00:06.775Z,4144.00
2024-02-13T09:01:06.774Z,3972.00
2024-02-13T09:02:06.694Z,3748.00
2024-02-13T09:03:06.686Z,3940.00
2024-02-13T09:04:06.716Z,3740.00
2024-02-13T09:05:06.766Z,3328.00
2024-02-13T09:06:06.761Z,3252.00
2024-02-13T09:07:06.659Z,3200.00
2024-02-13T09:08:06.656Z,3336.00
2024-02-13T09:09:06.717Z,3580.00
2024-02-13T09:10:06.628Z,3884.00
2024-02-13T09:11:06.630Z,4524.00
2024-02-13T09:12:06.659Z,4492.00
2024-02-13T09:13:06.644Z,4876.00
2024-02-13T09:14:06.562Z,4864.00
2024-02-13T09:15:06.558Z,4756.00
2024-02-13T09:16:07.231Z,4616.00
2024-02-13T09:17:06.568Z,4244.00
2024-02-13T09:18:06.810Z,4132.00
2024-02-13T09:19:06.658Z,4068.00
2024-02-13T09:20:06.522Z,4280.00
2024-02-13T09:21:06.514Z,4356.00
2024-02-13T09:22:06.477Z,4944.00
2024-02-13T09:23:06.467Z,4784.00
2024-02-13T09:24:06.580Z,4868.00
2024-02-13T09:25:06.475Z,5324.00
2024-02-13T09:26:06.439Z,5296.00
2024-02-13T09:27:06.480Z,5868.00
2024-02-13T09:28:06.439Z,5600.00
2024-02-13T09:29:06.402Z,5724.00
2024-02-13T09:30:06.443Z,6036.00
2024-02-13T09:31:06.405Z,5768.00
2024-02-13T09:32:06.391Z,6128.00
2024-02-13T09:33:06.436Z,6076.00
2024-02-13T09:34:06.529Z,5988.00
2024-02-13T09:35:06.342Z,5864.00
2024-02-13T09:36:06.349Z,5724.00
2024-02-13T09:37:06.318Z,5492.00
2024-02-13T09:38:06.331Z,6028.00
2024-02-13T09:39:06.327Z,6364.00
2024-02-13T09:40:06.299Z,5752.00
2024-02-13T09:41:06.282Z,4584.00
2024-02-13T09:42:06.314Z,3996.00
2024-02-13T09:43:06.385Z,3476.00
2024-02-13T09:44:06.291Z,3216.00
2024-02-13T09:45:06.317Z,3324.00
2024-02-13T09:46:06.216Z,3444.00
2024-02-13T09:47:06.220Z,3708.00
2024-02-13T09:48:06.326Z,4880.00
2024-02-13T09:49:06.407Z,5620.00
2024-02-13T09:50:06.188Z,5732.00
2024-02-13T09:51:06.231Z,6404.00
2024-02-13T09:52:06.155Z,6364.00
2024-02-13T09:53:06.151Z,6348.00
2024-02-13T09:54:06.304Z,6636.00
2024-02-13T09:55:06.133Z,6432.00
2024-02-13T09:56:06.108Z,6384.00
2024-02-13T09:57:06.182Z,6252.00
2024-02-13T09:58:06.112Z,6312.00
2024-02-13T09:59:06.128Z,6236.00
2024-02-13T10:00:06.111Z,6196.00
2024-02-13T10:01:06.068Z,5784.00
2024-02-13T10:02:06.074Z,5752.00
2024-02-13T10:03:06.152Z,6032.00
2024-02-13T10:04:06.103Z,5704.00
2024-02-13T10:05:06.021Z,5312.00
2024-02-13T10:06:06.127Z,5896.00
2024-02-13T10:07:06.097Z,5992.00
2024-02-13T10:08:06.000Z,6032.00
2024-02-13T10:09:06.032Z,6108.00
2024-02-13T10:10:05.968Z,6040.00
2024-02-13T10:11:05.973Z,5820.00
2024-02-13T10:12:05.987Z,5224.00
2024-02-13T10:13:05.926Z,5464.00
2024-02-13T10:14:05.934Z,5888.00
2024-02-13T10:15:05.996Z,5696.00
2024-02-13T10:16:05.912Z,5880.00
2024-02-13T10:17:05.882Z,5316.00
2024-02-13T10:18:05.924Z,5240.00
2024-02-13T10:19:05.892Z,5424.00
2024-02-13T10:20:05.908Z,5756.00
2024-02-13T10:21:05.953Z,5488.00
2024-02-13T10:22:05.826Z,4972.00
2024-02-13T10:23:05.854Z,5256.00
2024-02-13T10:24:05.976Z,5848.00
2024-02-13T10:25:05.822Z,5988.00
2024-02-13T10:26:05.817Z,6216.00
2024-02-13T10:27:05.842Z,6536.00
2024-02-13T10:28:05.761Z,6588.00
2024-02-13T10:29:05.792Z,6492.00
2024-02-13T10:30:05.817Z,6152.00
2024-02-13T10:31:05.756Z,6252.00
2024-02-13T10:32:05.727Z,6056.00
2024-02-13T10:33:05.810Z,5956.00
2024-02-13T10:34:05.716Z,5628.00
2024-02-13T10:35:05.848Z,5376.00
2024-02-13T10:36:05.744Z,5788.00
2024-02-13T10:37:05.662Z,5928.00
2024-02-13T10:38:05.661Z,5516.00
2024-02-13T10:39:05.685Z,5704.00
2024-02-13T10:40:05.632Z,6032.00
2024-02-13T10:41:05.640Z,5896.00
2024-02-13T10:42:05.613Z,5808.00
2024-02-13T10:43:05.628Z,5344.00
2024-02-13T10:44:05.586Z,4772.00
2024-02-13T10:45:05.684Z,4916.00
2024-02-13T10:46:05.564Z,5012.00
2024-02-13T10:47:05.578Z,5028.00
2024-02-13T10:48:05.653Z,4408.00
2024-02-13T10:49:05.612Z,4384.00
2024-02-13T10:50:05.625Z,4856.00
2024-02-13T10:51:05.605Z,4944.00
2024-02-13T10:52:05.518Z,5236.00
2024-02-13T10:53:05.487Z,5588.00
2024-02-13T10:54:05.503Z,5572.00
2024-02-13T10:55:05.492Z,5720.00
2024-02-13T10:56:05.467Z,5936.00
2024-02-13T10:57:05.461Z,5672.00
2024-02-13T10:58:13.846Z,5384.00
2024-02-13T10:59:06.423Z,5404.00
2024-02-13T11:00:05.503Z,5528.00
2024-02-13T11:01:05.617Z,5312.00
2024-02-13T11:02:05.765Z,5688.00
2024-02-13T11:03:05.451Z,6672.00
2024-02-13T11:04:05.451Z,7340.00
2024-02-13T11:05:05.432Z,8428.00
2024-02-13T11:06:05.441Z,9424.00
2024-02-13T11:07:05.381Z,9116.00
2024-02-13T11:08:05.326Z,10272.00
2024-02-13T11:09:05.412Z,22688.00
2024-02-13T11:10:05.306Z,17024.00
2024-02-13T11:11:05.319Z,13048.00
2024-02-13T11:12:05.378Z,10504.00
2024-02-13T11:13:05.300Z,8040.00
2024-02-13T11:14:05.273Z,7208.00
2024-02-13T11:15:05.388Z,8156.00
2024-02-13T11:16:05.264Z,8192.00
2024-02-13T11:17:05.234Z,9664.00
2024-02-13T11:18:05.315Z,11384.00
2024-02-13T11:19:05.413Z,13704.00
2024-02-13T11:20:05.342Z,8864.00
2024-02-13T11:21:05.280Z,7820.00
2024-02-13T11:22:05.182Z,7100.00
2024-02-13T11:23:05.166Z,6584.00
2024-02-13T11:24:05.272Z,6780.00
2024-02-13T11:25:05.166Z,7088.00
2024-02-13T11:26:05.138Z,7132.00
2024-02-13T11:27:19.520Z,6588.00
2024-02-13T11:28:06.111Z,6224.00
2024-02-13T11:29:05.094Z,5756.00
2024-02-13T11:30:05.130Z,5444.00
2024-02-13T11:31:05.077Z,5456.00
2024-02-13T11:32:05.092Z,5372.00
2024-02-13T11:33:05.180Z,5980.00
2024-02-13T11:34:05.359Z,6308.00
2024-02-13T11:35:05.150Z,6088.00
2024-02-13T11:36:05.063Z,5504.00
2024-02-13T11:37:06.679Z,5416.00
2024-02-13T11:38:05.000Z,5608.00
2024-02-13T11:39:05.055Z,5212.00
2024-02-13T11:40:04.999Z,5248.00
2024-02-13T11:41:04.967Z,4740.00
2024-02-13T11:42:04.977Z,4512.00
2024-02-13T11:43:04.954Z,4196.00
2024-02-13T11:44:04.929Z,4072.00
2024-02-13T11:45:05.068Z,3904.00
2024-02-13T11:46:04.914Z,3884.00
2024-02-13T11:47:04.921Z,4156.00
2024-02-13T11:48:05.009Z,4772.00
2024-02-13T11:49:05.012Z,5212.00
2024-02-13T11:50:04.953Z,5544.00
2024-02-13T11:51:05.232Z,4028.00
2024-02-13T11:52:04.876Z,3396.00
2024-02-13T11:53:04.836Z,4248.00
2024-02-13T11:54:04.841Z,4752.00
2024-02-13T11:55:04.814Z,4392.00
2024-02-13T11:56:04.810Z,4056.00
2024-02-13T11:57:04.888Z,4904.00
2024-02-13T11:58:04.790Z,5212.00
2024-02-13T11:59:04.781Z,5740.00
2024-02-13T12:00:04.787Z,7280.00
2024-02-13T12:01:04.935Z,7248.00
2024-02-13T12:02:04.762Z,7280.00
2024-02-13T12:03:04.766Z,7468.00
2024-02-13T12:04:04.781Z,6568.00
2024-02-13T12:05:04.704Z,6940.00
2024-02-13T12:06:04.755Z,6912.00
2024-02-13T12:07:04.748Z,6816.00
2024-02-13T12:08:04.675Z,7468.00
2024-02-13T12:09:04.923Z,6684.00
2024-02-13T12:10:04.662Z,7528.00
2024-02-13T12:11:04.656Z,8536.00
2024-02-13T12:12:04.665Z,9172.00
2024-02-13T12:13:04.614Z,9116.00
2024-02-13T12:14:04.637Z,8868.00
2024-02-13T12:15:04.610Z,8600.00
2024-02-13T12:16:04.588Z,9252.00
2024-02-13T12:17:04.574Z,8008.00
2024-02-13T12:18:04.797Z,7804.00
2024-02-13T12:19:05.005Z,9148.00
2024-02-13T12:20:04.563Z,9380.00
2024-02-13T12:21:04.588Z,9104.00
2024-02-13T12:22:04.519Z,8444.00
2024-02-13T12:23:04.550Z,7500.00
2024-02-13T12:24:04.548Z,5244.00
2024-02-13T12:25:04.481Z,4024.00
2024-02-13T12:26:04.502Z,3528.00
2024-02-13T12:27:04.527Z,5844.00
2024-02-13T12:28:04.451Z,5940.00
2024-02-13T12:29:04.466Z,5996.00
2024-02-13T12:30:04.449Z,6256.00
2024-02-13T12:31:04.417Z,5252.00
2024-02-13T12:32:04.419Z,5788.00
2024-02-13T12:33:04.528Z,6816.00
2024-02-13T12:34:04.549Z,6328.00
2024-02-13T12:35:04.487Z,5924.00
2024-02-13T12:36:04.512Z,6036.00
2024-02-13T12:37:04.353Z,5976.00
2024-02-13T12:38:04.349Z,7220.00
2024-02-13T12:39:04.571Z,3860.00
2024-02-13T12:40:04.344Z,3956.00
2024-02-13T12:41:04.338Z,5608.00